Terminal Aerodrome Forecast
Issued by NWS

Home | Current Version | Previous Version | Text Only | Print | Product List | Glossary On
Versions: 1 2 3 4 5 6 7 8 9 10 11 12 13 14 15 16
000
FTUS41 KALY 221134
TAFPSF
TAF
KPSF 221134Z 2212/2312 VRB04KT P6SM OVC040
     FM221900 15009KT 6SM -SHRA BR OVC020
     FM230000 15005KT 5SM BR VCSH OVC010
     FM230200 19004KT 2SM BR OVC007
     FM230600 28004KT 4SM BR SCT008 BKN040
     FM231100 33004KT P6SM SCT250=

USA.gov is the U.S. government's official web portal to all federal, state and local government web resources and services.